createdAt,value
2022-08-30T00:01:31.944Z,11.45
2022-08-30T00:04:38.267Z,11.43
2022-08-30T00:07:44.648Z,11.43
2022-08-30T00:10:51.835Z,11.42
2022-08-30T00:13:58.228Z,11.40
2022-08-30T00:17:04.617Z,11.40
2022-08-30T00:20:10.729Z,11.39
2022-08-30T00:23:17.188Z,11.34
2022-08-30T00:26:23.619Z,11.34
2022-08-30T00:29:31.679Z,11.34
2022-08-30T00:32:37.636Z,11.33
2022-08-30T00:35:45.464Z,11.32
2022-08-30T00:39:13.526Z,11.31
2022-08-30T00:42:19.647Z,11.30
2022-08-30T00:45:25.722Z,11.30
2022-08-30T00:48:31.832Z,11.29
2022-08-30T00:51:37.644Z,11.27
2022-08-30T00:54:56.493Z,11.25
2022-08-30T00:58:08.968Z,11.23
2022-08-30T01:01:17.056Z,11.22
2022-08-30T01:04:30.755Z,11.18
2022-08-30T01:07:36.933Z,11.16
2022-08-30T01:10:43.968Z,11.17
2022-08-30T01:14:18.055Z,11.16
2022-08-30T01:17:25.375Z,11.16
2022-08-30T01:20:33.765Z,11.16
2022-08-30T01:23:43.045Z,11.13
2022-08-30T01:26:51.316Z,11.12
2022-08-30T01:30:09.338Z,11.13
2022-08-30T01:33:20.837Z,11.11
2022-08-30T01:36:29.325Z,11.10
2022-08-30T01:39:35.105Z,11.08
2022-08-30T01:42:44.092Z,11.08
2022-08-30T01:45:50.265Z,11.07
2022-08-30T01:48:56.366Z,11.05
2022-08-30T01:52:02.073Z,11.02
2022-08-30T01:55:07.651Z,11.01
2022-08-30T01:58:14.066Z,11.00
2022-08-30T02:01:29.886Z,10.98
2022-08-30T02:04:41.263Z,10.96
2022-08-30T02:07:48.224Z,10.97
2022-08-30T02:10:55.110Z,10.97
2022-08-30T02:14:01.776Z,10.96
2022-08-30T02:17:09.448Z,10.96
2022-08-30T02:20:30.051Z,10.96
2022-08-30T02:23:36.108Z,10.93
2022-08-30T02:26:45.986Z,10.90
2022-08-30T02:29:52.161Z,10.87
2022-08-30T02:33:03.839Z,10.85
2022-08-30T02:36:09.728Z,10.81
2022-08-30T02:39:15.661Z,10.81
2022-08-30T02:42:21.903Z,10.79
2022-08-30T02:45:28.097Z,10.74
2022-08-30T02:48:33.621Z,10.70
2022-08-30T02:55:00.183Z,10.66
2022-08-30T02:58:11.098Z,10.62
2022-08-30T03:01:17.378Z,10.57
2022-08-30T03:04:26.749Z,10.53
2022-08-30T03:07:33.520Z,10.50
2022-08-30T03:10:39.604Z,10.46
2022-08-30T03:14:02.856Z,10.43
2022-08-30T03:17:12.950Z,10.39
2022-08-30T03:20:22.225Z,10.37
2022-08-30T03:23:29.531Z,10.33
2022-08-30T03:26:36.447Z,10.29
2022-08-30T03:29:46.336Z,10.27
2022-08-30T03:32:53.422Z,10.25
2022-08-30T03:35:59.326Z,10.25
2022-08-30T03:39:05.737Z,10.22
2022-08-30T03:42:21.532Z,10.18
2022-08-30T03:45:29.728Z,10.15
2022-08-30T03:48:38.998Z,10.12
2022-08-30T03:51:44.852Z,10.10
2022-08-30T03:54:50.671Z,10.12
2022-08-30T03:57:56.712Z,10.08
2022-08-30T04:01:06.901Z,10.07
2022-08-30T04:04:15.395Z,10.03
2022-08-30T04:07:24.483Z,10.02
2022-08-30T04:10:30.239Z,10.04
2022-08-30T04:13:36.897Z,10.07
2022-08-30T04:16:42.960Z,10.09
2022-08-30T04:19:49.514Z,10.13
2022-08-30T04:22:55.455Z,10.14
2022-08-30T04:26:04.430Z,10.18
2022-08-30T04:29:11.941Z,10.23
2022-08-30T04:32:27.003Z,10.29
2022-08-30T04:35:33.422Z,10.38
2022-08-30T04:38:40.349Z,10.44
2022-08-30T04:41:47.562Z,10.52
2022-08-30T04:44:54.267Z,10.58
2022-08-30T04:48:04.491Z,10.67
2022-08-30T04:51:10.931Z,10.71
2022-08-30T04:54:33.629Z,10.80
2022-08-30T04:57:40.487Z,10.89
2022-08-30T05:00:46.539Z,10.96
2022-08-30T05:03:52.996Z,11.04
2022-08-30T05:06:58.782Z,11.11
2022-08-30T05:10:20.369Z,11.19
2022-08-30T05:13:35.477Z,11.27
2022-08-30T05:16:43.589Z,11.35
2022-08-30T05:19:49.557Z,11.47
2022-08-30T05:22:56.099Z,11.56
2022-08-30T05:26:02.830Z,11.64
2022-08-30T05:29:08.735Z,11.74
2022-08-30T05:32:16.102Z,11.84
2022-08-30T05:35:27.978Z,11.92
2022-08-30T05:38:34.394Z,11.97
2022-08-30T05:41:53.306Z,12.03
2022-08-30T05:45:01.763Z,12.09
2022-08-30T05:48:08.269Z,12.15
2022-08-30T05:51:14.308Z,12.21
2022-08-30T05:54:21.298Z,12.36
2022-08-30T05:57:38.017Z,12.45
2022-08-30T06:00:48.273Z,12.59
2022-08-30T06:03:54.616Z,12.72
2022-08-30T06:07:01.859Z,12.75
2022-08-30T06:10:08.354Z,12.81
2022-08-30T06:13:13.973Z,12.89
2022-08-30T06:16:23.135Z,12.96
2022-08-30T06:19:31.123Z,13.05
2022-08-30T06:22:39.114Z,13.13
2022-08-30T06:25:45.089Z,13.22
2022-08-30T06:28:50.646Z,13.29
2022-08-30T06:31:56.694Z,13.36
2022-08-30T06:35:03.358Z,13.45
2022-08-30T06:38:09.907Z,13.53
2022-08-30T06:41:16.025Z,13.59
2022-08-30T06:44:21.935Z,13.67
2022-08-30T06:47:28.318Z,13.80
2022-08-30T06:50:34.597Z,13.92
2022-08-30T06:53:43.837Z,13.97
2022-08-30T06:56:59.084Z,14.01
2022-08-30T07:00:17.283Z,14.07
2022-08-30T07:03:23.547Z,14.15
2022-08-30T07:06:29.381Z,14.32
2022-08-30T07:09:35.577Z,14.48
2022-08-30T07:12:45.121Z,14.61
2022-08-30T07:15:51.607Z,14.67
2022-08-30T07:19:00.722Z,14.74
2022-08-30T07:22:07.382Z,14.80
2022-08-30T07:25:13.390Z,14.83
2022-08-30T07:28:20.319Z,14.91
2022-08-30T07:31:42.752Z,15.03
2022-08-30T07:34:51.387Z,15.09
2022-08-30T07:38:00.331Z,15.14
2022-08-30T07:41:06.486Z,15.23
2022-08-30T07:44:13.821Z,15.31
2022-08-30T07:47:20.152Z,15.46
2022-08-30T07:50:26.258Z,15.60
2022-08-30T07:53:32.106Z,15.70
2022-08-30T07:56:38.134Z,15.80
2022-08-30T07:59:44.490Z,15.83
2022-08-30T08:02:51.043Z,15.88
2022-08-30T08:05:58.017Z,15.86
2022-08-30T08:09:04.085Z,15.92
2022-08-30T08:12:10.233Z,16.06
2022-08-30T08:15:21.387Z,16.19
2022-08-30T08:18:31.939Z,16.24
2022-08-30T08:21:38.840Z,16.37
2022-08-30T08:24:47.609Z,16.47
2022-08-30T08:27:55.349Z,16.55
2022-08-30T08:31:06.342Z,16.65
2022-08-30T08:34:13.018Z,16.74
2022-08-30T08:37:22.310Z,16.87
2022-08-30T08:40:35.110Z,16.98
2022-08-30T08:43:40.814Z,17.06
2022-08-30T08:46:47.175Z,17.08
2022-08-30T08:49:54.798Z,17.15
2022-08-30T08:53:36.117Z,17.19
2022-08-30T08:56:44.167Z,17.29
2022-08-30T08:59:52.643Z,17.43
2022-08-30T09:03:22.687Z,17.46
2022-08-30T09:06:29.327Z,17.57
2022-08-30T09:09:35.299Z,17.58
2022-08-30T09:13:02.129Z,17.52
2022-08-30T09:16:08.932Z,17.65
2022-08-30T09:19:20.292Z,17.80
2022-08-30T09:22:27.950Z,17.78
2022-08-30T09:25:41.272Z,17.85
2022-08-30T09:28:49.233Z,18.01
2022-08-30T09:32:22.579Z,18.09
2022-08-30T09:35:24.619Z,18.23
2022-08-30T09:38:30.809Z,18.32
2022-08-30T09:41:43.471Z,18.33
2022-08-30T09:44:49.950Z,18.37
2022-08-30T09:47:55.993Z,18.46
2022-08-30T09:51:03.399Z,18.53
2022-08-30T09:54:17.858Z,18.69
2022-08-30T09:57:33.884Z,18.72
2022-08-30T10:00:40.457Z,18.66
2022-08-30T10:03:46.297Z,18.53
2022-08-30T10:06:52.327Z,18.49
2022-08-30T10:10:00.033Z,18.70
2022-08-30T10:13:06.990Z,18.85
2022-08-30T10:16:13.808Z,19.08
2022-08-30T10:19:52.343Z,19.42
2022-08-30T10:22:59.108Z,19.64
2022-08-30T10:26:04.571Z,19.74
2022-08-30T10:29:10.102Z,19.91
2022-08-30T10:32:15.478Z,19.79
2022-08-30T10:35:23.813Z,19.64
2022-08-30T10:38:33.524Z,19.40
2022-08-30T10:41:42.304Z,19.18
2022-08-30T10:44:57.365Z,19.15
2022-08-30T10:48:05.668Z,19.26
2022-08-30T10:51:13.873Z,19.39
2022-08-30T10:54:20.065Z,19.55
2022-08-30T10:57:26.411Z,19.72
2022-08-30T11:00:35.399Z,19.86
2022-08-30T11:03:44.849Z,19.80
2022-08-30T11:06:54.007Z,19.85
2022-08-30T11:10:01.397Z,19.97
2022-08-30T11:13:08.235Z,20.11
2022-08-30T11:16:15.887Z,20.21
2022-08-30T11:19:21.807Z,20.31
2022-08-30T11:22:28.109Z,20.42
2022-08-30T11:25:38.236Z,20.53
2022-08-30T11:28:44.987Z,20.56
2022-08-30T11:31:51.419Z,20.63
2022-08-30T11:35:00.606Z,20.74
2022-08-30T11:38:07.038Z,20.81
2022-08-30T11:41:15.404Z,20.74
2022-08-30T11:44:22.014Z,20.68
2022-08-30T11:47:28.590Z,20.61
2022-08-30T11:50:35.277Z,20.52
2022-08-30T11:53:41.972Z,20.57
2022-08-30T11:56:52.058Z,20.67
2022-08-30T12:00:01.553Z,20.78
2022-08-30T12:03:08.875Z,20.65
2022-08-30T12:06:17.585Z,20.52
2022-08-30T12:09:25.285Z,20.51
2022-08-30T12:12:32.115Z,20.40
2022-08-30T12:15:38.884Z,20.26
2022-08-30T12:18:47.206Z,20.14
2022-08-30T12:21:52.908Z,20.18
2022-08-30T12:24:59.196Z,20.44
2022-08-30T12:28:06.302Z,20.75
2022-08-30T12:31:12.086Z,20.99
2022-08-30T12:34:18.047Z,20.89
2022-08-30T12:37:25.344Z,20.79
2022-08-30T12:40:36.527Z,20.68
2022-08-30T12:43:43.049Z,20.41
2022-08-30T12:50:42.368Z,20.21
2022-08-30T12:53:56.261Z,20.22
2022-08-30T12:57:35.020Z,20.36
2022-08-30T13:00:42.383Z,20.63
2022-08-30T13:03:58.490Z,20.71
2022-08-30T13:07:14.810Z,20.69
2022-08-30T13:10:26.579Z,20.62
2022-08-30T13:13:33.532Z,20.55
2022-08-30T13:16:45.422Z,20.51
2022-08-30T13:19:51.922Z,20.34
2022-08-30T13:22:58.372Z,20.29
2022-08-30T13:26:04.705Z,20.25
2022-08-30T13:29:11.170Z,20.25
2022-08-30T13:32:17.451Z,20.36
2022-08-30T13:35:24.040Z,20.60
2022-08-30T13:38:30.032Z,20.71
2022-08-30T13:41:36.397Z,20.84
2022-08-30T13:44:48.983Z,20.95
2022-08-30T13:47:59.521Z,21.01
2022-08-30T13:51:07.956Z,21.08
2022-08-30T13:54:15.301Z,20.94
2022-08-30T14:00:48.813Z,20.53
2022-08-30T14:04:15.770Z,20.27
2022-08-30T14:07:23.927Z,20.29
2022-08-30T14:10:32.661Z,20.31
2022-08-30T14:13:39.125Z,20.27
2022-08-30T14:17:05.043Z,20.22
2022-08-30T14:20:16.289Z,20.25
2022-08-30T14:23:23.707Z,20.33
2022-08-30T14:26:32.900Z,20.35
2022-08-30T14:29:39.321Z,20.56
2022-08-30T14:32:47.487Z,20.66
2022-08-30T14:35:54.015Z,20.62
2022-08-30T14:39:00.791Z,20.73
2022-08-30T14:42:09.491Z,20.86
2022-08-30T14:45:16.203Z,21.01
2022-08-30T14:48:24.493Z,21.04
2022-08-30T14:51:31.385Z,21.13
2022-08-30T14:54:41.197Z,21.18
2022-08-30T15:01:15.761Z,21.28
2022-08-30T15:04:23.445Z,21.27
2022-08-30T15:07:39.520Z,21.30
2022-08-30T15:10:45.397Z,21.21
2022-08-30T15:13:52.880Z,21.09
2022-08-30T15:16:59.492Z,21.07
2022-08-30T15:20:10.586Z,20.99
2022-08-30T15:23:22.873Z,20.90
2022-08-30T15:26:30.566Z,20.78
2022-08-30T15:29:36.921Z,20.71
2022-08-30T15:32:42.840Z,20.59
2022-08-30T15:35:52.191Z,20.47
2022-08-30T15:39:00.042Z,20.35
2022-08-30T15:42:06.814Z,20.24
2022-08-30T15:45:13.030Z,20.16
2022-08-30T15:48:19.474Z,20.35
2022-08-30T15:51:27.522Z,20.90
2022-08-30T15:54:33.772Z,21.44
2022-08-30T15:57:41.238Z,21.43
2022-08-30T16:00:54.851Z,21.19
2022-08-30T16:04:04.777Z,20.98
2022-08-30T16:07:10.572Z,20.82
2022-08-30T16:10:16.143Z,20.74
2022-08-30T16:13:23.232Z,21.06
2022-08-30T16:16:31.197Z,21.15
2022-08-30T16:19:37.120Z,21.44
2022-08-30T16:22:47.162Z,21.50
2022-08-30T16:26:02.344Z,22.09
2022-08-30T16:29:10.667Z,22.84
2022-08-30T16:32:16.810Z,23.35
2022-08-30T16:35:23.951Z,23.06
2022-08-30T16:38:30.646Z,22.55
2022-08-30T16:41:40.035Z,22.60
2022-08-30T16:44:46.361Z,22.79
2022-08-30T16:48:00.753Z,23.22
2022-08-30T16:51:08.788Z,23.55
2022-08-30T16:54:15.078Z,23.55
2022-08-30T16:57:33.680Z,23.16
2022-08-30T17:00:39.734Z,22.53
2022-08-30T17:03:56.725Z,21.92
2022-08-30T17:07:04.722Z,21.30
2022-08-30T17:10:15.089Z,20.85
2022-08-30T17:13:25.876Z,20.42
2022-08-30T17:16:31.499Z,20.04
2022-08-30T17:23:18.354Z,19.34
2022-08-30T17:26:26.264Z,19.06
2022-08-30T17:29:32.789Z,18.89
2022-08-30T17:32:43.207Z,18.67
2022-08-30T17:35:54.441Z,18.47
2022-08-30T17:39:17.189Z,18.32
2022-08-30T17:42:24.643Z,18.17
2022-08-30T17:45:37.539Z,18.04
2022-08-30T17:48:43.997Z,17.86
2022-08-30T17:51:54.206Z,17.70
2022-08-30T17:55:03.585Z,17.57
2022-08-30T17:58:15.903Z,17.40
2022-08-30T18:01:24.835Z,17.29
2022-08-30T18:04:36.804Z,17.16
2022-08-30T18:07:43.257Z,16.98
2022-08-30T18:10:49.364Z,16.87
2022-08-30T18:13:55.580Z,16.75
2022-08-30T18:17:10.247Z,16.66
2022-08-30T18:20:16.331Z,16.55
2022-08-30T18:23:24.083Z,16.43
2022-08-30T18:26:35.901Z,16.33
2022-08-30T18:29:42.894Z,16.23
2022-08-30T18:32:49.487Z,16.11
2022-08-30T18:35:55.498Z,16.02
2022-08-30T18:39:03.089Z,15.93
2022-08-30T18:42:11.464Z,15.83
2022-08-30T18:45:17.958Z,15.74
2022-08-30T18:48:31.336Z,15.66
2022-08-30T18:51:37.503Z,15.55
2022-08-30T18:54:46.264Z,15.45
2022-08-30T18:57:59.870Z,15.36
2022-08-30T19:01:09.282Z,15.25
2022-08-30T19:07:48.576Z,15.00
2022-08-30T19:11:01.410Z,14.90
2022-08-30T19:14:14.272Z,14.83
2022-08-30T19:17:32.395Z,14.77
2022-08-30T19:20:42.722Z,14.69
2022-08-30T19:23:54.415Z,14.64
2022-08-30T19:27:07.699Z,14.60
2022-08-30T19:30:23.163Z,14.57
2022-08-30T19:33:33.712Z,14.51
2022-08-30T19:36:41.242Z,14.47
2022-08-30T19:39:48.359Z,14.42
2022-08-30T19:42:55.399Z,14.36
2022-08-30T19:46:02.466Z,14.30
2022-08-30T19:49:10.646Z,14.25
2022-08-30T19:52:17.906Z,14.19
2022-08-30T19:55:28.415Z,14.15
2022-08-30T19:58:36.431Z,14.08
2022-08-30T20:01:43.872Z,14.03
2022-08-30T20:04:52.092Z,13.95
2022-08-30T20:07:58.328Z,13.86
2022-08-30T20:11:07.096Z,13.79
2022-08-30T20:14:14.785Z,13.71
2022-08-30T20:17:24.571Z,13.65
2022-08-30T20:20:31.100Z,13.59
2022-08-30T20:23:41.923Z,13.52
2022-08-30T20:24:23.738Z,19.73
2022-08-30T20:24:30.324Z,15.12
2022-08-30T20:26:49.432Z,13.47
2022-08-30T20:29:58.499Z,13.41
2022-08-30T20:33:22.236Z,13.38
2022-08-30T20:36:28.135Z,13.36
2022-08-30T20:39:34.468Z,13.32
2022-08-30T20:42:44.463Z,13.30
2022-08-30T20:45:50.279Z,13.25
2022-08-30T20:49:19.540Z,13.21
2022-08-30T20:52:27.028Z,13.20
2022-08-30T20:55:33.351Z,13.19
2022-08-30T20:58:39.230Z,13.23
2022-08-30T21:01:46.965Z,13.25
2022-08-30T21:04:53.361Z,13.30
2022-08-30T21:07:59.074Z,13.35
2022-08-30T21:11:07.294Z,13.37
2022-08-30T21:14:13.974Z,13.41
2022-08-30T21:17:20.116Z,13.45
2022-08-30T21:20:26.274Z,13.52
2022-08-30T21:23:35.172Z,13.57
2022-08-30T21:26:45.153Z,13.60
2022-08-30T21:29:51.194Z,13.62
2022-08-30T21:33:00.060Z,13.64
2022-08-30T21:36:24.360Z,13.63
2022-08-30T21:39:30.119Z,13.63
2022-08-30T21:42:36.391Z,13.60
2022-08-30T21:45:42.249Z,13.54
2022-08-30T21:48:49.323Z,13.52
2022-08-30T21:51:55.606Z,13.49
2022-08-30T21:55:01.255Z,13.48
2022-08-30T21:58:09.053Z,13.48
2022-08-30T22:01:15.699Z,13.50
2022-08-30T22:07:54.533Z,13.54
2022-08-30T22:11:00.202Z,13.55
2022-08-30T22:14:07.065Z,13.57
2022-08-30T22:17:16.210Z,13.60
2022-08-30T22:23:41.345Z,13.63
2022-08-30T22:26:48.499Z,13.65
2022-08-30T22:29:54.584Z,13.64
2022-08-30T22:33:00.969Z,13.65
2022-08-30T22:36:14.264Z,13.60
2022-08-30T22:39:37.878Z,13.57
2022-08-30T22:42:48.118Z,13.52
2022-08-30T22:45:55.114Z,13.49
2022-08-30T22:49:03.954Z,13.42
2022-08-30T22:52:15.904Z,13.30
2022-08-30T22:55:22.325Z,13.20
2022-08-30T22:58:29.218Z,13.10
2022-08-30T23:01:35.805Z,12.99
2022-08-30T23:04:43.633Z,12.85
2022-08-30T23:08:08.300Z,12.74
2022-08-30T23:11:14.907Z,12.63
2022-08-30T23:14:21.185Z,12.54
2022-08-30T23:17:27.963Z,12.48
2022-08-30T23:20:38.895Z,12.42
2022-08-30T23:24:05.769Z,12.37
2022-08-30T23:27:28.954Z,12.37
2022-08-30T23:30:56.485Z,12.35
2022-08-30T23:34:19.941Z,12.33
2022-08-30T23:41:24.765Z,12.25
2022-08-30T23:44:57.855Z,12.18
2022-08-30T23:48:21.866Z,12.13
2022-08-30T23:51:45.478Z,12.09
2022-08-30T23:55:09.760Z,12.02
2022-08-30T23:58:33.857Z,11.94
